Time;durP1;ratioP1;P1;durP2;ratioP2;P2;SDS_P1;SDS_P2;PMS_P1;PMS_P2;Temp;Humidity;BMP_temperature;BMP_pressure;BME280_temperature;BME280_humidity;BME280_pressure;Samples;Min_cycle;Max_cycle;Signal;HPM_P1;HPM_P2
2022/07/31 00:02:05;;;;;;;4.40;1.90;;;20.10;99.90;;;;;;5112737;28;20547;-63
2022/07/31 00:04:32;;;;;;;3.93;1.70;;;20.10;99.90;;;;;;5112562;28;20200;-64
2022/07/31 00:07:00;;;;;;;2.37;1.70;;;20.10;99.90;;;;;;5112232;28;20366;-64
2022/07/31 00:09:28;;;;;;;5.33;1.90;;;20.10;99.90;;;;;;5112049;28;20361;-64
2022/07/31 00:11:55;;;;;;;4.83;2.17;;;20.10;99.90;;;;;;5112391;28;20203;-64
2022/07/31 00:14:21;;;;;;;3.30;1.90;;;20.10;99.90;;;;;;5112185;28;20215;-64
2022/07/31 00:16:48;;;;;;;2.83;2.03;;;20.10;99.90;;;;;;5112208;28;20203;-64
2022/07/31 00:19:16;;;;;;;3.83;1.90;;;20.00;99.90;;;;;;5112117;28;20281;-65
2022/07/31 00:21:43;;;;;;;2.20;1.80;;;20.00;99.90;;;;;;5112335;28;20228;-64
2022/07/31 00:24:11;;;;;;;4.53;2.00;;;20.00;99.90;;;;;;5112516;28;20204;-64
2022/07/31 00:26:39;;;;;;;4.73;2.70;;;20.00;99.90;;;;;;5113488;28;20264;-64
2022/07/31 00:29:06;;;;;;;4.27;2.17;;;20.00;99.90;;;;;;5116744;28;20199;-64
2022/07/31 00:31:33;;;;;;;3.17;2.47;;;20.00;99.90;;;;;;5116487;28;20314;-65
2022/07/31 00:33:59;;;;;;;4.53;2.43;;;19.90;99.90;;;;;;5116669;28;20260;-64
2022/07/31 00:36:26;;;;;;;3.97;2.43;;;19.90;99.90;;;;;;5116156;28;20280;-64
2022/07/31 00:38:52;;;;;;;3.27;2.20;;;19.90;99.90;;;;;;5116107;28;20219;-66
2022/07/31 00:41:20;;;;;;;3.10;2.30;;;19.90;99.90;;;;;;5116020;28;20230;-64
2022/07/31 00:43:47;;;;;;;5.33;2.30;;;19.80;99.90;;;;;;5116095;28;20253;-64
2022/07/31 00:46:14;;;;;;;2.90;2.10;;;19.90;99.90;;;;;;5115781;28;20203;-64
2022/07/31 00:48:41;;;;;;;4.80;2.57;;;19.80;99.90;;;;;;5116038;28;20575;-64
2022/07/31 00:51:08;;;;;;;4.73;2.20;;;19.80;99.90;;;;;;5115996;28;20280;-64
2022/07/31 00:53:35;;;;;;;4.27;2.50;;;19.80;99.90;;;;;;5115683;28;20622;-64
2022/07/31 00:56:01;;;;;;;4.17;2.80;;;19.70;99.90;;;;;;5115876;28;20256;-64
2022/07/31 00:58:29;;;;;;;3.10;2.20;;;19.60;99.90;;;;;;5115836;27;20233;-64
2022/07/31 01:00:56;;;;;;;4.77;2.60;;;19.60;99.90;;;;;;5115902;28;20277;-64
2022/07/31 01:03:22;;;;;;;2.50;2.20;;;19.50;99.90;;;;;;5115760;28;20204;-64
2022/07/31 01:05:49;;;;;;;7.57;2.20;;;19.50;99.90;;;;;;5115697;27;20215;-64
2022/07/31 01:08:16;;;;;;;3.47;2.20;;;19.40;99.90;;;;;;5115250;27;20203;-64
2022/07/31 01:10:50;;;;;;;2.77;2.27;;;19.40;99.90;;;;;;5115480;28;20220;-64
2022/07/31 01:13:29;;;;;;;2.73;2.40;;;19.40;99.90;;;;;;5115526;28;20203;-61
2022/07/31 01:15:59;;;;;;;4.90;2.10;;;19.30;99.90;;;;;;5114885;27;20212;-62
2022/07/31 01:18:29;;;;;;;5.50;2.17;;;19.30;99.90;;;;;;5114633;28;20212;-62
2022/07/31 01:20:59;;;;;;;5.53;2.53;;;19.20;99.90;;;;;;5113923;28;20296;-62
2022/07/31 01:23:42;;;;;;;8.43;2.20;;;19.10;99.90;;;;;;5114224;28;20204;-62
2022/07/31 01:26:18;;;;;;;2.33;2.13;;;19.00;99.90;;;;;;5113807;28;20260;-61
2022/07/31 01:29:06;;;;;;;4.43;2.40;;;18.90;99.90;;;;;;5114013;28;20238;-63
2022/07/31 01:31:37;;;;;;;4.10;2.30;;;18.90;99.90;;;;;;5114272;28;20227;-64
2022/07/31 01:34:10;;;;;;;3.30;2.13;;;18.90;99.90;;;;;;5114046;28;20749;-64
2022/07/31 01:36:42;;;;;;;3.43;2.30;;;18.80;99.90;;;;;;5113576;28;20195;-64
2022/07/31 01:39:08;;;;;;;2.90;2.30;;;18.80;99.90;;;;;;5113789;28;20235;-64
2022/07/31 01:41:40;;;;;;;2.50;2.10;;;18.70;99.90;;;;;;5113845;28;20231;-64
2022/07/31 01:44:11;;;;;;;2.70;2.00;;;18.70;99.90;;;;;;5114213;28;20256;-64
2022/07/31 01:46:39;;;;;;;2.33;2.07;;;18.70;99.90;;;;;;5113528;28;20208;-64
2022/07/31 01:49:07;;;;;;;3.93;2.23;;;18.60;99.90;;;;;;5113821;28;20222;-62
2022/07/31 01:51:35;;;;;;;5.27;2.40;;;18.60;99.90;;;;;;5113520;28;20273;-62
2022/07/31 01:54:03;;;;;;;4.73;2.40;;;18.60;99.90;;;;;;5113571;28;20211;-64
2022/07/31 01:56:31;;;;;;;3.33;2.23;;;18.60;99.90;;;;;;5113453;28;20371;-64
2022/07/31 01:58:59;;;;;;;3.20;2.30;;;18.60;99.90;;;;;;5113421;28;20204;-64
2022/07/31 02:01:28;;;;;;;3.17;2.20;;;18.60;99.90;;;;;;5113563;28;20219;-64
2022/07/31 02:03:55;;;;;;;2.43;2.00;;;18.60;99.90;;;;;;5113449;28;20248;-64
2022/07/31 02:06:24;;;;;;;2.53;2.10;;;18.60;99.90;;;;;;5113059;28;20207;-64
2022/07/31 02:08:53;;;;;;;2.93;2.37;;;18.60;99.90;;;;;;5113410;28;20665;-64
2022/07/31 02:11:21;;;;;;;3.30;2.20;;;18.60;99.90;;;;;;5113393;28;20230;-64
2022/07/31 02:13:48;;;;;;;4.87;2.10;;;18.60;99.90;;;;;;5113314;28;20685;-64
2022/07/31 02:16:17;;;;;;;5.37;2.40;;;18.60;99.90;;;;;;5112784;28;20207;-64
2022/07/31 02:18:48;;;;;;;4.80;2.40;;;18.60;99.90;;;;;;5076620;28;1052169;-64
2022/07/31 02:21:15;;;;;;;3.63;2.10;;;18.70;99.90;;;;;;5113807;28;20386;-64
2022/07/31 02:23:42;;;;;;;5.53;2.20;;;18.70;99.90;;;;;;5114433;28;20207;-64
2022/07/31 02:26:09;;;;;;;5.17;2.47;;;18.70;99.90;;;;;;5114068;27;20256;-64
2022/07/31 02:28:40;;;;;;;5.13;2.40;;;18.70;99.90;;;;;;5114219;28;20207;-64
2022/07/31 02:31:11;;;;;;;3.50;2.40;;;18.70;99.90;;;;;;5114455;28;20219;-64
2022/07/31 02:33:38;;;;;;;6.47;2.17;;;18.70;99.90;;;;;;5113969;28;20401;-64
2022/07/31 02:36:08;;;;;;;2.60;2.13;;;18.70;99.90;;;;;;5113626;28;20738;-64
2022/07/31 02:38:36;;;;;;;4.23;2.10;;;18.70;99.90;;;;;;5114274;27;20203;-64
2022/07/31 02:41:04;;;;;;;3.37;2.10;;;18.70;99.90;;;;;;5113832;28;20231;-64
2022/07/31 02:43:33;;;;;;;2.70;2.30;;;18.60;99.90;;;;;;5113675;28;20211;-64
2022/07/31 02:46:01;;;;;;;4.37;2.77;;;18.60;99.90;;;;;;5113308;28;20298;-64
2022/07/31 02:48:28;;;;;;;4.17;2.37;;;18.60;99.90;;;;;;5113228;27;20211;-64
2022/07/31 02:50:55;;;;;;;2.53;2.20;;;18.50;99.90;;;;;;5112976;28;20771;-64
2022/07/31 02:53:23;;;;;;;3.03;2.17;;;18.50;99.90;;;;;;5113551;28;20200;-64
2022/07/31 02:55:51;;;;;;;3.57;2.27;;;18.50;99.90;;;;;;5113526;28;20225;-63
2022/07/31 02:58:18;;;;;;;6.17;2.20;;;18.40;99.90;;;;;;5113451;28;20286;-64
2022/07/31 03:00:45;;;;;;;2.43;2.10;;;18.40;99.90;;;;;;5113159;28;20228;-63
2022/07/31 03:03:12;;;;;;;2.60;2.40;;;18.40;99.90;;;;;;5113634;28;20235;-63
2022/07/31 03:05:39;;;;;;;3.27;2.30;;;18.30;99.90;;;;;;5113332;28;20203;-64
2022/07/31 03:08:06;;;;;;;3.57;2.50;;;18.30;99.90;;;;;;5113158;28;20207;-64
2022/07/31 03:10:34;;;;;;;4.00;2.27;;;18.30;99.90;;;;;;5113562;28;20273;-63
2022/07/31 03:13:02;;;;;;;3.73;2.17;;;18.30;99.90;;;;;;5113487;28;20207;-64
2022/07/31 03:15:30;;;;;;;2.93;2.30;;;18.30;99.90;;;;;;5113169;28;20233;-64
2022/07/31 03:17:58;;;;;;;3.43;2.20;;;18.30;99.90;;;;;;5112898;28;20200;-64
2022/07/31 03:20:26;;;;;;;4.13;2.20;;;18.30;99.90;;;;;;5113240;28;20281;-64
2022/07/31 03:22:53;;;;;;;3.77;2.20;;;18.30;99.90;;;;;;5112964;28;20670;-64
2022/07/31 03:25:19;;;;;;;3.90;2.53;;;18.30;99.90;;;;;;5112964;28;20207;-64
2022/07/31 03:27:48;;;;;;;3.93;2.40;;;18.40;99.90;;;;;;5112664;28;20263;-64
2022/07/31 03:30:17;;;;;;;3.20;2.30;;;18.40;99.90;;;;;;5112989;28;20224;-64
2022/07/31 03:32:44;;;;;;;6.80;2.70;;;18.40;99.90;;;;;;5113144;28;20207;-64
2022/07/31 03:35:11;;;;;;;4.70;2.17;;;18.40;99.90;;;;;;5113054;28;20208;-64
2022/07/31 03:37:37;;;;;;;3.67;2.20;;;18.50;99.90;;;;;;5112488;28;20612;-64
2022/07/31 03:40:05;;;;;;;4.80;2.60;;;18.50;99.90;;;;;;5112115;28;20312;-64
2022/07/31 03:42:32;;;;;;;3.20;2.40;;;18.50;99.90;;;;;;5112747;28;20566;-64
2022/07/31 03:45:02;;;;;;;5.37;2.50;;;18.60;99.90;;;;;;5112763;28;20252;-64
2022/07/31 03:47:29;;;;;;;3.80;2.30;;;18.60;99.90;;;;;;5112344;28;20256;-63
2022/07/31 03:49:56;;;;;;;4.77;2.47;;;18.70;99.90;;;;;;5112727;28;20567;-64
2022/07/31 03:52:23;;;;;;;3.27;2.60;;;18.70;99.90;;;;;;5112549;28;20208;-65
2022/07/31 03:54:50;;;;;;;2.30;2.10;;;18.70;99.90;;;;;;5112408;28;20199;-64
2022/07/31 03:57:18;;;;;;;4.80;2.53;;;18.80;99.90;;;;;;5112404;28;20643;-65
2022/07/31 03:59:46;;;;;;;2.53;2.23;;;18.80;99.90;;;;;;5112405;28;20660;-64
2022/07/31 04:02:14;;;;;;;3.33;2.10;;;18.90;99.90;;;;;;5112610;28;20203;-64
2022/07/31 04:04:42;;;;;;;3.47;2.03;;;18.90;99.90;;;;;;5112430;28;20208;-64
2022/07/31 04:07:09;;;;;;;2.73;2.27;;;18.90;99.90;;;;;;5112120;28;20617;-64
2022/07/31 04:09:37;;;;;;;6.43;2.43;;;18.90;99.90;;;;;;5112135;27;20200;-64
2022/07/31 04:12:04;;;;;;;4.43;2.60;;;18.90;99.90;;;;;;5112513;28;20204;-64
2022/07/31 04:14:31;;;;;;;4.43;2.20;;;19.00;99.90;;;;;;5112273;28;20208;-64
2022/07/31 04:16:58;;;;;;;2.40;2.20;;;19.00;99.90;;;;;;5112085;28;20230;-64
2022/07/31 04:19:29;;;;;;;2.30;2.10;;;19.00;99.90;;;;;;5112128;28;20276;-64
2022/07/31 04:21:56;;;;;;;2.80;1.97;;;19.00;99.90;;;;;;5112038;28;20319;-64
2022/07/31 04:24:23;;;;;;;3.10;2.30;;;19.00;99.90;;;;;;5112433;28;20211;-64
2022/07/31 04:26:49;;;;;;;3.10;2.37;;;19.10;99.90;;;;;;5112062;28;20211;-64
2022/07/31 04:29:16;;;;;;;2.37;2.17;;;19.10;99.90;;;;;;5112179;28;20578;-64
2022/07/31 04:31:43;;;;;;;4.73;2.43;;;19.20;99.90;;;;;;5112298;28;20219;-64
2022/07/31 04:34:10;;;;;;;3.07;2.37;;;19.20;99.90;;;;;;5112101;28;20229;-64
2022/07/31 04:36:38;;;;;;;3.40;2.20;;;19.20;99.90;;;;;;5111755;28;20204;-64
2022/07/31 04:39:05;;;;;;;2.97;2.23;;;19.30;99.90;;;;;;5112213;28;20302;-64
2022/07/31 04:41:31;;;;;;;4.40;2.40;;;19.20;99.90;;;;;;5112154;28;20277;-64
2022/07/31 04:43:58;;;;;;;2.97;2.33;;;19.30;99.90;;;;;;5112184;28;20237;-64
2022/07/31 04:46:25;;;;;;;4.53;2.47;;;19.30;99.90;;;;;;5111734;28;20200;-65
2022/07/31 04:48:52;;;;;;;5.20;2.30;;;19.30;99.90;;;;;;5112090;28;20204;-64
2022/07/31 04:51:20;;;;;;;3.07;2.47;;;19.30;99.90;;;;;;5111841;28;20227;-64
2022/07/31 04:53:49;;;;;;;2.90;2.20;;;19.30;99.90;;;;;;5112097;28;20242;-64
2022/07/31 04:56:34;;;;;;;4.90;2.20;;;19.40;99.90;;;;;;5111847;28;20298;-64
2022/07/31 04:59:04;;;;;;;3.27;2.30;;;19.40;99.90;;;;;;5111936;28;20236;-65
2022/07/31 05:01:31;;;;;;;3.50;2.37;;;19.40;99.90;;;;;;5111618;28;20223;-64
2022/07/31 05:03:58;;;;;;;5.13;2.50;;;19.40;99.90;;;;;;5112150;28;20257;-64
2022/07/31 05:06:33;;;;;;;6.33;2.40;;;19.50;99.90;;;;;;5111665;28;20207;-64
2022/07/31 05:09:01;;;;;;;4.70;2.40;;;19.50;99.90;;;;;;5111823;28;20199;-65
2022/07/31 05:11:28;;;;;;;6.20;2.47;;;19.50;99.90;;;;;;5111731;28;20310;-64
2022/07/31 05:13:57;;;;;;;2.50;2.30;;;19.50;99.90;;;;;;5115258;28;20212;-64
2022/07/31 05:16:24;;;;;;;4.80;2.60;;;19.50;99.90;;;;;;5115073;28;20211;-64
2022/07/31 05:18:51;;;;;;;2.90;2.27;;;19.60;99.90;;;;;;5115377;28;20216;-64
2022/07/31 05:21:18;;;;;;;4.80;2.80;;;19.60;99.90;;;;;;5115354;28;20227;-64
2022/07/31 05:23:46;;;;;;;6.20;2.77;;;19.70;99.90;;;;;;5115519;28;20295;-64
2022/07/31 05:26:16;;;;;;;6.13;2.50;;;19.70;99.90;;;;;;5115172;28;20207;-64
2022/07/31 05:28:43;;;;;;;3.93;2.30;;;19.70;99.90;;;;;;5115257;28;20264;-64
2022/07/31 05:31:10;;;;;;;4.17;2.60;;;19.60;99.90;;;;;;5115504;28;20219;-64
2022/07/31 05:33:37;;;;;;;3.60;2.70;;;19.60;99.90;;;;;;5115344;28;20256;-63
2022/07/31 05:36:05;;;;;;;4.57;3.50;;;19.60;99.90;;;;;;5114973;28;20207;-64
2022/07/31 05:38:32;;;;;;;4.10;2.80;;;19.60;99.90;;;;;;5115125;28;20222;-65
2022/07/31 05:40:58;;;;;;;5.47;2.90;;;19.60;99.90;;;;;;5114942;27;20232;-64
2022/07/31 05:43:26;;;;;;;5.97;3.03;;;19.50;99.90;;;;;;5115331;28;20207;-65
2022/07/31 05:45:53;;;;;;;7.40;2.67;;;19.50;99.90;;;;;;5114830;28;20211;-64
2022/07/31 05:48:21;;;;;;;5.67;3.17;;;19.50;99.90;;;;;;5115057;27;20230;-64
2022/07/31 05:50:48;;;;;;;8.00;3.03;;;19.60;99.90;;;;;;5114830;28;20264;-64
2022/07/31 05:53:16;;;;;;;6.77;3.60;;;19.60;99.90;;;;;;5114819;28;20207;-65
2022/07/31 05:55:43;;;;;;;4.70;3.03;;;19.60;99.90;;;;;;5114731;28;20256;-64
2022/07/31 05:58:10;;;;;;;4.00;2.77;;;19.80;99.90;;;;;;5114647;28;20204;-64
2022/07/31 06:00:40;;;;;;;5.67;2.90;;;19.90;99.90;;;;;;5114683;28;20224;-64
2022/07/31 06:03:07;;;;;;;4.37;2.97;;;19.90;99.90;;;;;;5114814;28;20207;-64
2022/07/31 06:05:34;;;;;;;4.37;2.87;;;20.00;99.90;;;;;;5114618;27;20252;-65
2022/07/31 06:08:01;;;;;;;4.57;3.30;;;20.00;99.90;;;;;;5114373;28;20207;-64
2022/07/31 06:10:28;;;;;;;4.20;3.57;;;20.00;99.90;;;;;;5114334;28;20253;-65
2022/07/31 06:12:55;;;;;;;7.23;2.60;;;20.10;99.90;;;;;;5114633;27;20211;-65
2022/07/31 06:15:22;;;;;;;5.07;3.37;;;20.00;99.90;;;;;;5114797;28;20215;-65
2022/07/31 06:17:50;;;;;;;5.40;3.50;;;20.00;99.90;;;;;;5113988;28;20669;-65
2022/07/31 06:20:17;;;;;;;9.33;3.90;;;20.00;99.90;;;;;;5114143;28;20230;-64
2022/07/31 06:22:44;;;;;;;5.00;4.03;;;19.90;99.90;;;;;;5114129;28;20253;-64
2022/07/31 06:25:11;;;;;;;7.73;4.20;;;20.00;99.90;;;;;;5112901;28;20215;-64
2022/07/31 06:27:38;;;;;;;6.17;4.37;;;20.00;99.90;;;;;;5113950;27;20284;-64
2022/07/31 06:30:06;;;;;;;7.37;4.13;;;19.90;99.90;;;;;;5113876;28;20219;-65
2022/07/31 06:32:33;;;;;;;5.93;4.10;;;19.90;99.90;;;;;;5114151;28;20196;-64
2022/07/31 06:35:01;;;;;;;8.73;3.93;;;20.00;99.90;;;;;;5113968;28;20203;-63
2022/07/31 06:37:28;;;;;;;7.57;4.60;;;20.10;99.90;;;;;;5113473;28;20253;-65
2022/07/31 06:39:55;;;;;;;4.57;3.70;;;20.40;99.90;;;;;;5114057;27;20281;-64
2022/07/31 06:42:22;;;;;;;10.33;5.03;;;20.60;99.90;;;;;;5113686;28;20223;-64
2022/07/31 06:44:49;;;;;;;5.87;4.17;;;20.80;99.90;;;;;;5113944;28;20261;-65
2022/07/31 06:47:16;;;;;;;8.50;4.03;;;21.00;99.90;;;;;;5113516;28;20203;-64
2022/07/31 06:49:43;;;;;;;8.17;5.27;;;21.20;99.90;;;;;;5113677;28;20199;-64
2022/07/31 06:52:11;;;;;;;6.30;4.27;;;21.20;99.90;;;;;;5113506;28;20207;-64
2022/07/31 06:54:38;;;;;;;7.27;4.20;;;21.20;99.90;;;;;;5114182;28;20674;-64
2022/07/31 06:57:05;;;;;;;5.27;4.07;;;21.00;99.90;;;;;;5113616;28;20257;-64
2022/07/31 06:59:31;;;;;;;9.73;5.30;;;21.10;99.90;;;;;;5113661;28;20606;-66
2022/07/31 07:01:58;;;;;;;10.50;4.63;;;20.90;99.90;;;;;;5113686;28;20227;-65
2022/07/31 07:04:25;;;;;;;8.60;5.03;;;20.90;99.90;;;;;;5114051;28;20203;-64
2022/07/31 07:06:51;;;;;;;7.63;4.27;;;21.00;99.90;;;;;;5113774;27;20278;-65
2022/07/31 07:09:19;;;;;;;8.57;4.30;;;21.00;99.90;;;;;;5113941;28;20272;-65
2022/07/31 07:11:46;;;;;;;7.20;4.00;;;21.10;99.90;;;;;;5113388;28;20249;-65
2022/07/31 07:14:13;;;;;;;5.77;4.13;;;21.20;99.90;;;;;;5113261;28;20214;-65
2022/07/31 07:16:39;;;;;;;5.57;4.00;;;21.20;99.90;;;;;;5112972;28;20256;-67
2022/07/31 07:19:06;;;;;;;8.47;4.47;;;21.30;99.90;;;;;;5113052;28;20218;-65
2022/07/31 07:21:33;;;;;;;4.27;3.80;;;21.40;99.90;;;;;;5113120;28;20224;-66
2022/07/31 07:24:00;;;;;;;7.60;4.20;;;21.50;99.90;;;;;;5113144;28;20207;-65
2022/07/31 07:26:28;;;;;;;9.63;3.80;;;21.50;99.90;;;;;;5112859;28;20248;-65
2022/07/31 07:28:55;;;;;;;6.87;4.13;;;21.60;99.90;;;;;;5112946;28;20207;-65
2022/07/31 07:31:22;;;;;;;4.87;3.27;;;21.40;99.90;;;;;;5112933;28;20227;-65
2022/07/31 07:33:50;;;;;;;6.73;3.60;;;21.40;99.90;;;;;;5112792;28;20210;-65
2022/07/31 07:36:17;;;;;;;6.67;3.97;;;21.60;99.90;;;;;;5112314;28;20260;-65
2022/07/31 07:38:44;;;;;;;4.70;3.50;;;21.40;99.90;;;;;;5112704;28;20816;-67
2022/07/31 07:41:10;;;;;;;7.13;3.60;;;21.20;99.90;;;;;;5112782;28;20272;-65
2022/07/31 07:43:38;;;;;;;5.83;3.40;;;21.10;99.90;;;;;;5112773;28;20253;-65
2022/07/31 07:46:05;;;;;;;3.77;3.00;;;21.20;99.90;;;;;;5112389;28;20203;-65
2022/07/31 07:48:32;;;;;;;4.60;3.20;;;21.20;99.90;;;;;;5112867;28;20249;-66
2022/07/31 07:50:58;;;;;;;6.33;3.00;;;21.30;99.90;;;;;;5112738;28;20231;-63
2022/07/31 07:53:25;;;;;;;3.43;2.73;;;21.30;99.90;;;;;;5112744;28;20253;-65
2022/07/31 07:55:52;;;;;;;3.83;2.50;;;21.40;99.90;;;;;;5112457;28;20208;-63
2022/07/31 07:58:19;;;;;;;4.73;2.50;;;21.40;99.90;;;;;;5112562;28;20208;-65
2022/07/31 08:00:47;;;;;;;5.07;2.33;;;21.50;99.90;;;;;;5112386;28;20783;-66
2022/07/31 08:03:15;;;;;;;4.87;2.30;;;21.60;99.90;;;;;;5112414;28;20232;-65
2022/07/31 08:05:42;;;;;;;2.10;1.70;;;21.60;99.90;;;;;;5112510;28;20210;-65
2022/07/31 08:08:09;;;;;;;2.20;1.90;;;21.50;99.90;;;;;;5112276;28;20355;-65
2022/07/31 08:10:38;;;;;;;3.13;1.83;;;21.50;99.90;;;;;;5112272;28;20272;-65
2022/07/31 08:13:05;;;;;;;2.27;1.80;;;21.40;99.90;;;;;;5112458;28;20199;-65
2022/07/31 08:15:31;;;;;;;5.63;2.00;;;21.40;99.90;;;;;;5112359;28;20207;-65
2022/07/31 08:17:59;;;;;;;3.70;1.73;;;21.40;99.90;;;;;;5112150;28;20207;-68
2022/07/31 08:20:26;;;;;;;3.63;1.87;;;21.50;99.90;;;;;;5112445;28;20281;-65
2022/07/31 08:22:53;;;;;;;2.13;1.70;;;21.60;99.90;;;;;;5112176;28;20231;-65
2022/07/31 08:25:19;;;;;;;3.23;1.90;;;21.60;99.90;;;;;;5112398;28;20239;-64
2022/07/31 08:27:48;;;;;;;2.93;1.80;;;21.60;99.90;;;;;;5111801;28;20276;-65
2022/07/31 08:30:15;;;;;;;2.27;1.80;;;21.60;99.90;;;;;;5112524;28;20227;-65
2022/07/31 08:32:41;;;;;;;3.37;1.93;;;21.70;99.90;;;;;;5112300;28;20199;-64
2022/07/31 08:35:10;;;;;;;2.30;1.67;;;21.90;99.90;;;;;;5112224;28;20199;-64
2022/07/31 08:37:36;;;;;;;3.30;1.70;;;21.90;99.90;;;;;;5111799;28;20236;-64
2022/07/31 08:40:04;;;;;;;1.77;1.40;;;21.80;99.90;;;;;;5111852;28;20644;-65
2022/07/31 08:42:31;;;;;;;2.10;1.70;;;21.90;99.90;;;;;;5111905;28;20269;-65
2022/07/31 08:44:58;;;;;;;2.47;1.80;;;21.90;99.90;;;;;;5112340;28;20310;-65
2022/07/31 08:47:26;;;;;;;3.47;1.60;;;22.00;99.90;;;;;;5113260;28;20203;-65
2022/07/31 08:49:54;;;;;;;2.47;1.63;;;21.90;99.90;;;;;;5116090;28;20643;-64
2022/07/31 08:52:24;;;;;;;2.37;1.50;;;21.80;99.90;;;;;;5116057;28;20583;-64
2022/07/31 08:54:52;;;;;;;3.43;1.60;;;21.70;99.90;;;;;;5115848;28;20294;-64
2022/07/31 08:57:19;;;;;;;2.63;1.60;;;21.70;99.90;;;;;;5115843;27;20207;-64
2022/07/31 08:59:47;;;;;;;2.37;1.60;;;21.90;99.90;;;;;;5115949;28;20236;-64
2022/07/31 09:02:15;;;;;;;3.63;1.70;;;21.90;99.90;;;;;;5115986;28;20223;-64
2022/07/31 09:04:42;;;;;;;2.97;1.33;;;22.00;99.90;;;;;;5115936;28;20314;-64
2022/07/31 09:07:13;;;;;;;2.77;1.50;;;22.00;99.90;;;;;;5115593;28;20207;-64
2022/07/31 09:09:42;;;;;;;7.00;2.10;;;22.00;99.90;;;;;;5116417;28;20670;-64
2022/07/31 09:12:09;;;;;;;2.13;1.90;;;22.00;99.90;;;;;;5117097;28;20195;-64
2022/07/31 09:14:36;;;;;;;1.93;1.30;;;22.00;99.90;;;;;;5116674;28;20208;-64
2022/07/31 09:17:04;;;;;;;1.30;1.10;;;21.90;99.90;;;;;;5115490;28;20277;-64
2022/07/31 09:19:37;;;;;;;1.97;1.43;;;21.90;99.90;;;;;;5115502;28;20678;-64
2022/07/31 09:22:04;;;;;;;2.70;1.50;;;22.00;99.90;;;;;;5115651;28;20223;-64
2022/07/31 09:24:32;;;;;;;4.50;1.67;;;22.20;99.90;;;;;;5115795;28;20290;-64
2022/07/31 09:27:06;;;;;;;2.17;1.27;;;22.20;99.90;;;;;;5115252;28;20200;-64
2022/07/31 09:29:36;;;;;;;2.87;1.37;;;22.30;99.90;;;;;;5115265;28;20916;-64
2022/07/31 09:32:14;;;;;;;1.83;1.40;;;22.40;99.90;;;;;;5115277;28;20202;-64
2022/07/31 09:34:42;;;;;;;1.77;1.07;;;22.30;99.90;;;;;;5115174;28;20207;-64
2022/07/31 09:37:10;;;;;;;1.87;1.40;;;22.40;99.90;;;;;;5114681;28;20697;-63
2022/07/31 09:39:37;;;;;;;2.63;1.50;;;22.40;99.90;;;;;;5115338;28;20203;-64
2022/07/31 09:42:06;;;;;;;1.77;1.43;;;22.40;99.90;;;;;;5115155;28;20292;-63
2022/07/31 09:44:37;;;;;;;2.50;1.50;;;22.50;99.90;;;;;;5115160;28;20207;-63
2022/07/31 09:47:05;;;;;;;1.40;1.20;;;22.70;99.90;;;;;;5114416;28;20211;-65
2022/07/31 09:49:32;;;;;;;1.70;1.17;;;22.50;99.90;;;;;;5115209;28;20204;-63
2022/07/31 09:52:00;;;;;;;2.13;1.40;;;22.50;99.90;;;;;;5114891;28;20195;-61
2022/07/31 09:54:29;;;;;;;2.60;1.63;;;22.60;99.90;;;;;;5115087;28;20203;-66
2022/07/31 09:56:56;;;;;;;2.97;1.23;;;22.70;99.90;;;;;;5114491;28;20210;-64
2022/07/31 09:59:25;;;;;;;2.10;1.67;;;22.60;99.90;;;;;;5114469;27;20260;-64
2022/07/31 10:01:53;;;;;;;2.40;1.13;;;22.60;99.90;;;;;;5114738;28;20231;-64
2022/07/31 10:04:21;;;;;;;2.30;1.90;;;22.60;99.90;;;;;;5114890;28;20268;-64
2022/07/31 10:06:50;;;;;;;3.10;1.47;;;22.60;99.90;;;;;;5114239;28;20726;-63
2022/07/31 10:09:19;;;;;;;4.20;1.70;;;22.50;99.90;;;;;;5100191;28;20621;-65
2022/07/31 10:11:46;;;;;;;3.77;1.80;;;22.50;99.90;;;;;;5112919;28;20223;-64
2022/07/31 10:14:20;;;;;;;2.33;1.60;;;22.40;99.90;;;;;;5111049;28;20257;-66
2022/07/31 10:16:51;;;;;;;1.73;1.60;;;22.50;99.90;;;;;;5116641;28;20211;-69
2022/07/31 10:19:19;;;;;;;3.33;1.70;;;22.50;99.90;;;;;;5112784;28;20219;-67
2022/07/31 10:21:54;;;;;;;3.30;1.47;;;22.40;99.90;;;;;;5113890;28;20232;-67
2022/07/31 10:24:23;;;;;;;2.83;1.60;;;22.60;99.90;;;;;;5112330;28;20278;-67
2022/07/31 10:26:51;;;;;;;2.20;1.43;;;22.60;99.90;;;;;;5112168;28;20211;-66
2022/07/31 10:29:18;;;;;;;1.90;1.37;;;22.70;99.90;;;;;;5112739;28;20682;-66
2022/07/31 10:31:45;;;;;;;1.97;1.30;;;22.80;99.90;;;;;;5111730;28;20591;-66
2022/07/31 10:34:14;;;;;;;2.00;1.47;;;22.80;99.90;;;;;;5112624;27;20208;-67
2022/07/31 10:36:45;;;;;;;2.30;1.30;;;22.90;99.90;;;;;;5112101;28;20222;-65
2022/07/31 10:39:20;;;;;;;3.97;1.43;;;22.90;99.90;;;;;;5112905;28;20561;-65
2022/07/31 10:41:57;;;;;;;1.83;1.47;;;23.20;99.90;;;;;;5112411;28;20227;-65
2022/07/31 10:44:36;;;;;;;3.00;1.40;;;23.30;99.90;;;;;;5111751;28;20207;-65
2022/07/31 10:47:12;;;;;;;4.03;1.60;;;23.30;99.90;;;;;;5111899;28;20211;-65
2022/07/31 10:49:41;;;;;;;4.97;1.70;;;23.20;99.90;;;;;;5112251;28;20196;-65
2022/07/31 10:52:08;;;;;;;3.77;1.97;;;23.20;99.90;;;;;;5112614;28;20274;-66
2022/07/31 10:54:39;;;;;;;2.57;1.40;;;22.90;99.90;;;;;;5112236;28;20227;-65
2022/07/31 10:57:06;;;;;;;3.73;1.60;;;22.90;99.90;;;;;;5111946;28;20264;-66
2022/07/31 10:59:33;;;;;;;5.67;2.00;;;22.90;99.90;;;;;;5111732;28;20294;-66
2022/07/31 11:02:00;;;;;;;4.70;1.70;;;22.90;99.90;;;;;;5111667;28;20696;-67
2022/07/31 11:04:29;;;;;;;2.83;1.90;;;23.10;99.90;;;;;;5111337;28;20204;-65
2022/07/31 11:06:58;;;;;;;3.97;2.07;;;23.00;99.90;;;;;;5111687;28;20210;-64
2022/07/31 11:09:26;;;;;;;4.37;1.90;;;23.00;99.90;;;;;;5111364;28;20272;-67
2022/07/31 11:11:54;;;;;;;3.93;1.70;;;23.10;99.90;;;;;;5111576;28;20192;-68
2022/07/31 11:14:31;;;;;;;5.03;1.87;;;23.30;99.90;;;;;;5111700;28;20260;-67
2022/07/31 11:16:58;;;;;;;2.23;2.00;;;23.60;99.90;;;;;;5111505;28;20207;-67
2022/07/31 11:19:25;;;;;;;5.00;1.83;;;23.90;99.90;;;;;;5111618;28;20721;-66
2022/07/31 11:21:56;;;;;;;4.70;2.37;;;24.00;99.90;;;;;;5111398;28;20253;-68
2022/07/31 11:24:24;;;;;;;4.67;1.87;;;24.10;99.90;;;;;;5111709;28;20302;-67
2022/07/31 11:26:52;;;;;;;6.50;1.50;;;24.20;99.90;;;;;;5111415;28;20230;-69
2022/07/31 11:29:29;;;;;;;4.10;2.30;;;24.40;99.90;;;;;;5111350;28;20200;-71
2022/07/31 11:31:59;;;;;;;3.37;1.90;;;24.20;99.90;;;;;;5111452;28;20243;-71
2022/07/31 11:34:26;;;;;;;3.07;2.17;;;24.30;99.90;;;;;;5111426;28;20635;-71
2022/07/31 11:36:53;;;;;;;3.03;1.97;;;23.80;99.90;;;;;;5111232;27;20204;-71
2022/07/31 11:39:22;;;;;;;4.93;2.30;;;23.80;99.90;;;;;;5110941;28;20208;-70
2022/07/31 11:41:51;;;;;;;5.73;2.13;;;23.60;99.90;;;;;;5111359;28;20231;-71
2022/07/31 11:44:20;;;;;;;6.53;3.07;;;23.80;99.90;;;;;;5111217;28;20268;-69
2022/07/31 11:46:49;;;;;;;3.67;2.00;;;24.00;99.90;;;;;;5110649;28;20699;-70
2022/07/31 11:49:21;;;;;;;6.00;2.50;;;23.90;99.90;;;;;;5110947;28;20228;-70
2022/07/31 11:51:48;;;;;;;3.70;1.80;;;24.10;99.90;;;;;;5110566;28;20238;-64
2022/07/31 11:54:23;;;;;;;2.30;2.10;;;24.30;99.90;;;;;;5111706;28;20210;-67
2022/07/31 11:56:53;;;;;;;3.93;2.20;;;24.30;99.90;;;;;;5110927;28;20294;-66
2022/07/31 11:59:30;;;;;;;3.37;2.30;;;24.30;99.90;;;;;;5110998;28;20735;-65
2022/07/31 12:02:03;;;;;;;5.80;2.30;;;24.40;99.90;;;;;;5111093;28;20294;-65
2022/07/31 12:04:30;;;;;;;3.40;2.20;;;24.30;99.90;;;;;;5110611;28;20227;-66
2022/07/31 12:06:57;;;;;;;6.23;2.63;;;24.40;99.90;;;;;;5110887;28;20227;-65
2022/07/31 12:09:24;;;;;;;5.83;2.50;;;24.40;99.90;;;;;;5110885;28;20849;-65
2022/07/31 12:11:53;;;;;;;3.67;2.20;;;24.20;99.90;;;;;;5110858;28;20207;-66
2022/07/31 12:14:28;;;;;;;2.83;2.27;;;24.10;99.90;;;;;;5111090;28;20623;-66
2022/07/31 12:16:54;;;;;;;3.60;2.10;;;23.90;99.90;;;;;;5110470;28;20207;-64
2022/07/31 12:19:26;;;;;;;4.90;3.03;;;23.90;99.90;;;;;;5110749;28;20597;-65
2022/07/31 12:21:53;;;;;;;4.50;3.20;;;23.70;99.90;;;;;;5112828;28;20207;-66
2022/07/31 12:24:20;;;;;;;4.50;2.63;;;23.50;99.90;;;;;;5114804;28;20224;-65
2022/07/31 12:26:50;;;;;;;4.23;2.20;;;23.50;99.90;;;;;;5114832;28;20206;-65
2022/07/31 12:29:19;;;;;;;5.10;2.30;;;23.70;99.90;;;;;;5114648;28;20576;-66
2022/07/31 12:31:49;;;;;;;3.93;2.20;;;23.80;99.90;;;;;;5114466;28;20575;-65
2022/07/31 12:34:27;;;;;;;5.33;2.40;;;24.00;99.90;;;;;;5115135;28;20211;-66
2022/07/31 12:37:01;;;;;;;7.87;2.37;;;24.40;99.90;;;;;;5114604;28;20203;-66
2022/07/31 12:39:28;;;;;;;2.47;2.20;;;24.80;99.90;;;;;;5114413;28;20290;-65
2022/07/31 12:41:54;;;;;;;3.17;2.33;;;24.80;99.90;;;;;;5114421;28;20284;-66
2022/07/31 12:44:23;;;;;;;4.80;2.30;;;25.10;99.90;;;;;;5114462;28;20234;-65
2022/07/31 12:46:50;;;;;;;3.77;2.10;;;25.20;99.90;;;;;;5114465;28;20294;-65
2022/07/31 12:49:17;;;;;;;2.97;1.80;;;25.30;99.90;;;;;;5114579;28;20204;-66
2022/07/31 12:51:44;;;;;;;2.93;1.90;;;25.40;99.90;;;;;;5114668;28;20234;-66